Bei Facebook empfehlenBei Twitter postenGoogle plusPinterest

Das Wetter im Erzgebirge am 29.09.2015

Wetter und Klima am 29.09.2015 Holzhau im Erzgebirge (630m ü.NN)
Letzte gemessene Temperatur und Uhrzeit der Messung23:45:00 Uhr2.10 °C
Temperatur (Maximum / Höchstwert) und Uhrzeit der Messung12:45:00 Uhr14.10 °C
Temperatur (Minimum / Tiefstwert) und Uhrzeit der Messung07:45:000.80 °C
Errechneter Absolutwert der Temperaturschwankungen zwischen Tmin und Tmax des Tages13.30 K
Errechnete Tagesmitteltemperatur6.40938 °C
Gesamt - Niederschlag des Tages (in flüssiger Form)0.00 Liter / m²
Luftdruck (Maximum / Höchstwert) und Zeitpunkt der Messung13:45:00 Uhr1031.40 hPa
Luftdruck (Minimum / Tiefstwert) und Zeitpunkt der Messung03:45:00 Uhr1030.00 hPa
Errechneter Absolutwert der Luftdruckschwankungen des Tages1.40 hPa
Höchste gemessene Windgeschwindigkeit und Uhrzeit der Messung23:00:00 Uhr183.60 km/h
Errechnete Windhäufigkeit in Relation zu den Messwerten des Tages21.87500 %
Niedrigste Windkühle (Windchill) und Zeitpunkt der Messung23:00:00 Uhr-9.40 °C
Taupunkt (Maximum / Höchstwert) und Uhrzeit der Messung11:15:00 Uhr10.40 °C
Taupunkt (Minimum / Tiefstwert) und Uhrzeit der Messung07:45:00-0.30 °C
Anzahl der automatisch eingelesenen Messwerte 96

Detaillierte Wetter- und Klima- Messwerte für den 29.09.2015 in Holzhau im Erzgebirge (630m ü.NN)
ZeitTemperaturLuftdruckRel. LuftfeuchteWindWindrichtungWindchillTaupunktNiederschlag l/m²
23:45:002.10 °C1030.50 hPa89.00 %1.80 km/hOSO2.10 °C0.50 °C 
23:30:002.30 °C1030.60 hPa88.00 %1.80 km/hSO2.30 °C0.50 °C 
23:15:002.30 °C1030.70 hPa88.00 %0.50 °C 
23:00:002.40 °C1030.50 hPa88.00 %183.60 km/hSO-9.40 °C0.60 °C 
22:45:002.50 °C1030.50 hPa87.00 %0.60 °C 
22:30:002.60 °C1030.60 hPa87.00 %0.70 °C 
22:15:002.70 °C1030.60 hPa86.00 %0.60 °C 
22:00:002.80 °C1030.50 hPa86.00 %0.70 °C 
21:45:003.10 °C1030.50 hPa86.00 %1.00 °C 
21:30:003.40 °C1030.70 hPa85.00 %1.10 °C 
21:15:003.60 °C1030.70 hPa85.00 %1.30 °C 
21:00:004.10 °C1030.70 hPa84.00 %1.60 °C 
20:45:004.60 °C1030.80 hPa83.00 %2.00 °C 
20:30:005.10 °C1030.70 hPa83.00 %2.50 °C 
20:15:005.60 °C1031.00 hPa82.00 %2.80 °C 
20:00:006.50 °C1030.90 hPa81.00 %3.50 °C 
19:45:007.40 °C1030.90 hPa80.00 %4.20 °C 
19:30:008.20 °C1031.10 hPa79.00 %4.80 °C 
19:15:008.90 °C1030.90 hPa79.00 %5.50 °C 
19:00:009.30 °C1031.00 hPa78.00 %5.70 °C 
18:45:009.50 °C1030.90 hPa77.00 %5.70 °C 
18:30:009.60 °C1030.80 hPa76.00 %5.60 °C 
18:15:0010.10 °C1031.10 hPa74.00 %5.70 °C 
18:00:0010.40 °C1031.10 hPa73.00 %5.80 °C 
17:45:0010.90 °C1031.20 hPa72.00 %6.10 °C 
17:30:0011.50 °C1031.20 hPa70.00 %6.20 °C 
17:15:0012.10 °C1031.10 hPa70.00 %4.68 km/hSO12.10 °C6.80 °C 
17:00:0012.40 °C1031.10 hPa69.00 %1.44 km/hOSO12.40 °C6.90 °C 
16:45:0012.20 °C1030.90 hPa71.00 %6.84 km/hSO11.80 °C7.10 °C 
16:30:0012.20 °C1030.90 hPa69.00 %2.88 km/hOSO12.20 °C6.70 °C 
16:15:0012.40 °C1031.00 hPa69.00 %6.90 °C 
16:00:0012.60 °C1030.60 hPa69.00 %7.10 °C 
15:45:0012.00 °C1030.90 hPa71.00 %2.88 km/hNO12.00 °C6.90 °C 
15:30:0011.60 °C1030.90 hPa70.00 %6.30 °C 
15:15:0012.10 °C1031.00 hPa69.00 %6.60 °C 
15:00:0012.70 °C1031.10 hPa68.00 %7.00 °C 
14:45:0012.30 °C1031.00 hPa68.00 %7.92 km/hNNO11.70 °C6.60 °C 
14:30:0012.70 °C1031.20 hPa68.00 %7.00 °C 
14:15:0012.20 °C1031.20 hPa68.00 %6.50 °C 
14:00:0013.30 °C1031.20 hPa68.00 %7.50 °C 
13:45:0012.90 °C1031.40 hPa69.00 %2.16 km/hSO12.90 °C7.40 °C 
13:30:0011.90 °C1031.30 hPa69.00 %7.20 km/hSO11.40 °C6.40 °C 
13:15:0012.60 °C1031.30 hPa69.00 %7.10 °C 
13:00:0013.10 °C1031.20 hPa67.00 %6.12 km/hOSO13.00 °C7.10 °C 
12:45:0014.10 °C1031.20 hPa71.00 %4.32 km/hNO14.10 °C8.90 °C 
12:30:0012.80 °C1031.20 hPa74.00 %10.80 km/hSSO11.90 °C8.30 °C 
12:15:0011.40 °C1031.40 hPa73.00 %7.20 km/hNO10.80 °C6.70 °C 
12:00:0012.10 °C1031.30 hPa74.00 %5.76 km/hO11.90 °C7.60 °C 
11:45:0012.90 °C1031.40 hPa76.00 %7.56 km/hSO12.50 °C8.80 °C 
11:30:0013.10 °C1031.30 hPa80.00 %4.68 km/hSO13.10 °C9.70 °C 
11:15:0013.20 °C1031.30 hPa83.00 %2.16 km/hOSO13.20 °C10.40 °C 
11:00:0011.90 °C1031.20 hPa88.00 %11.88 km/hSSO10.60 °C10.00 °C 
10:45:0011.20 °C1031.20 hPa90.00 %9.60 °C 
10:30:0010.90 °C1031.30 hPa92.00 %9.70 °C 
10:15:0010.50 °C1031.10 hPa94.00 %6.84 km/hSO9.80 °C9.60 °C 
10:00:009.70 °C1031.20 hPa94.00 %8.80 °C 
09:45:008.40 °C1031.00 hPa94.00 %7.50 °C 
09:30:006.50 °C1030.90 hPa94.00 %5.60 °C 
09:15:004.30 °C1030.90 hPa94.00 %3.40 °C 
09:00:002.90 °C1030.90 hPa93.00 %1.90 °C 
08:45:001.90 °C1030.80 hPa93.00 %0.90 °C 
08:30:001.20 °C1031.00 hPa93.00 %0.20 °C 
08:15:001.00 °C1030.80 hPa93.00 %0.00 °C 
08:00:000.90 °C1030.90 hPa93.00 %-0.10 °C 
07:45:000.80 °C1031.00 hPa92.00 %-0.30 °C 
07:30:000.90 °C1030.90 hPa92.00 %-0.20 °C 
07:15:000.80 °C1030.70 hPa92.00 %-0.30 °C 
07:00:000.90 °C1030.40 hPa92.00 %-0.20 °C 
06:45:001.30 °C1030.50 hPa92.00 %0.10 °C 
06:30:001.30 °C1030.40 hPa92.00 %0.10 °C 
06:15:001.40 °C1030.50 hPa92.00 %0.20 °C 
06:00:001.40 °C1030.30 hPa92.00 %0.20 °C 
05:45:001.40 °C1030.40 hPa92.00 %0.20 °C 
05:30:001.50 °C1030.40 hPa92.00 %0.30 °C 
05:15:001.60 °C1030.30 hPa92.00 %0.40 °C 
05:00:001.70 °C1030.40 hPa91.00 %0.40 °C 
04:45:001.80 °C1030.30 hPa91.00 %0.50 °C 
04:30:001.90 °C1030.30 hPa91.00 %0.60 °C 
04:15:002.10 °C1030.30 hPa91.00 %0.80 °C 
04:00:002.20 °C1030.10 hPa91.00 %0.90 °C 
03:45:002.10 °C1030.00 hPa91.00 %0.80 °C 
03:30:002.20 °C1030.00 hPa90.00 %0.70 °C 
03:15:002.30 °C1030.20 hPa90.00 %0.80 °C 
03:00:002.40 °C1030.20 hPa90.00 %0.90 °C 
02:45:002.40 °C1030.40 hPa90.00 %0.90 °C 
02:30:002.40 °C1030.40 hPa90.00 %0.90 °C 
02:15:002.80 °C1030.40 hPa90.00 %1.30 °C 
02:00:002.90 °C1030.50 hPa90.00 %1.40 °C 
01:45:003.30 °C1030.60 hPa90.00 %1.80 °C 
01:30:003.30 °C1030.50 hPa90.00 %1.80 °C 
01:15:003.30 °C1030.60 hPa89.00 %1.70 °C 
01:00:003.40 °C1030.60 hPa89.00 %1.80 °C 
00:45:003.60 °C1030.70 hPa89.00 %2.00 °C 
00:30:003.50 °C1031.00 hPa89.00 %1.90 °C 
00:15:003.40 °C1031.10 hPa89.00 %1.80 °C 
00:00:003.30 °C1031.10 hPa88.00 %1.50 °C 

Permanenter Link zu dieser Seite: Wetter im Erzgebirge am 29.09.2015
Performance-Info: Die Erstellung der Seite / Statistik(en) / Tabelle(n) erforderte 5 Datenbankserver-Abfrage(n) und dauerte 123 Millisekunden. (Dieser Messwert ist von der Gesamt-Auslastung des Servers abhängig.)
Erzgebirge - Wetter | Erzgebirge - Wetter (Mobilgeräte) | Komplette Klimadatenbank